sensor_id;sensor_type;location;lat;lon;timestamp;temperature;humidity
15749;DHT22;7976;52.526;13.326;2024-03-17T00:02:23;5.90;99.90
15749;DHT22;7976;52.526;13.326;2024-03-17T00:04:49;5.90;99.90
15749;DHT22;7976;52.526;13.326;2024-03-17T00:07:16;5.90;99.90
15749;DHT22;7976;52.526;13.326;2024-03-17T00:09:43;5.90;99.90
15749;DHT22;7976;52.526;13.326;2024-03-17T00:12:10;5.80;99.90
15749;DHT22;7976;52.526;13.326;2024-03-17T00:14:38;5.80;99.90
15749;DHT22;7976;52.526;13.326;2024-03-17T00:17:05;5.80;99.90
15749;DHT22;7976;52.526;13.326;2024-03-17T00:19:31;5.80;99.90
15749;DHT22;7976;52.526;13.326;2024-03-17T00:21:58;5.80;99.90
15749;DHT22;7976;52.526;13.326;2024-03-17T00:24:23;5.80;99.90
15749;DHT22;7976;52.526;13.326;2024-03-17T00:26:50;5.80;99.90
15749;DHT22;7976;52.526;13.326;2024-03-17T00:29:16;5.80;99.90
15749;DHT22;7976;52.526;13.326;2024-03-17T00:31:44;5.80;99.90
15749;DHT22;7976;52.526;13.326;2024-03-17T00:34:10;5.80;99.90
15749;DHT22;7976;52.526;13.326;2024-03-17T00:36:37;5.70;99.90
15749;DHT22;7976;52.526;13.326;2024-03-17T00:39:03;5.70;99.90
15749;DHT22;7976;52.526;13.326;2024-03-17T00:41:30;5.70;99.90
15749;DHT22;7976;52.526;13.326;2024-03-17T00:43:56;5.70;99.90
15749;DHT22;7976;52.526;13.326;2024-03-17T00:46:23;5.70;99.90
15749;DHT22;7976;52.526;13.326;2024-03-17T00:48:51;5.70;99.90
15749;DHT22;7976;52.526;13.326;2024-03-17T00:51:17;5.70;99.90
15749;DHT22;7976;52.526;13.326;2024-03-17T00:53:44;5.60;99.90
15749;DHT22;7976;52.526;13.326;2024-03-17T00:56:10;5.60;99.90
15749;DHT22;7976;52.526;13.326;2024-03-17T00:58:36;5.60;99.90
15749;DHT22;7976;52.526;13.326;2024-03-17T01:01:04;5.60;99.90
15749;DHT22;7976;52.526;13.326;2024-03-17T01:03:30;5.50;99.90
15749;DHT22;7976;52.526;13.326;2024-03-17T01:05:58;5.50;99.90
15749;DHT22;7976;52.526;13.326;2024-03-17T01:08:24;5.50;99.90
15749;DHT22;7976;52.526;13.326;2024-03-17T01:10:51;5.50;99.90
15749;DHT22;7976;52.526;13.326;2024-03-17T01:13:17;5.50;99.90
15749;DHT22;7976;52.526;13.326;2024-03-17T01:15:44;5.50;99.90
15749;DHT22;7976;52.526;13.326;2024-03-17T01:18:10;5.50;99.90
15749;DHT22;7976;52.526;13.326;2024-03-17T01:20:38;5.50;99.90
15749;DHT22;7976;52.526;13.326;2024-03-17T01:23:05;5.50;99.90
15749;DHT22;7976;52.526;13.326;2024-03-17T01:25:33;5.40;99.90
15749;DHT22;7976;52.526;13.326;2024-03-17T01:28:02;5.40;99.90
15749;DHT22;7976;52.526;13.326;2024-03-17T01:30:30;5.40;99.90
15749;DHT22;7976;52.526;13.326;2024-03-17T01:32:56;5.40;99.90
15749;DHT22;7976;52.526;13.326;2024-03-17T01:35:23;5.40;99.90
15749;DHT22;7976;52.526;13.326;2024-03-17T01:37:48;5.40;99.90
15749;DHT22;7976;52.526;13.326;2024-03-17T01:40:17;5.40;99.90
15749;DHT22;7976;52.526;13.326;2024-03-17T01:42:42;5.30;99.90
15749;DHT22;7976;52.526;13.326;2024-03-17T01:45:25;5.30;99.90
15749;DHT22;7976;52.526;13.326;2024-03-17T01:47:53;5.30;99.90
15749;DHT22;7976;52.526;13.326;2024-03-17T01:50:24;5.30;99.90
15749;DHT22;7976;52.526;13.326;2024-03-17T01:52:52;5.30;99.90
15749;DHT22;7976;52.526;13.326;2024-03-17T01:55:26;5.30;99.90
15749;DHT22;7976;52.526;13.326;2024-03-17T01:57:53;5.30;99.90
15749;DHT22;7976;52.526;13.326;2024-03-17T02:00:21;5.30;99.90
15749;DHT22;7976;52.526;13.326;2024-03-17T02:02:48;5.20;99.90
15749;DHT22;7976;52.526;13.326;2024-03-17T02:05:17;5.20;99.90
15749;DHT22;7976;52.526;13.326;2024-03-17T02:07:43;5.10;99.90
15749;DHT22;7976;52.526;13.326;2024-03-17T02:10:10;5.10;99.90
15749;DHT22;7976;52.526;13.326;2024-03-17T02:12:37;5.10;99.90
15749;DHT22;7976;52.526;13.326;2024-03-17T02:15:05;5.00;99.90
15749;DHT22;7976;52.526;13.326;2024-03-17T02:17:33;5.00;99.90
15749;DHT22;7976;52.526;13.326;2024-03-17T02:20:00;5.00;99.90
15749;DHT22;7976;52.526;13.326;2024-03-17T02:22:27;5.00;99.90
15749;DHT22;7976;52.526;13.326;2024-03-17T02:24:54;4.90;99.90
15749;DHT22;7976;52.526;13.326;2024-03-17T02:27:20;4.90;99.90
15749;DHT22;7976;52.526;13.326;2024-03-17T02:29:47;4.90;99.90
15749;DHT22;7976;52.526;13.326;2024-03-17T02:32:13;4.90;99.90
15749;DHT22;7976;52.526;13.326;2024-03-17T02:34:40;4.80;99.90
15749;DHT22;7976;52.526;13.326;2024-03-17T02:37:06;4.90;99.90
15749;DHT22;7976;52.526;13.326;2024-03-17T02:39:35;4.80;99.90
15749;DHT22;7976;52.526;13.326;2024-03-17T02:42:02;4.80;99.90
15749;DHT22;7976;52.526;13.326;2024-03-17T02:44:32;4.80;99.90
15749;DHT22;7976;52.526;13.326;2024-03-17T02:47:00;4.80;99.90
15749;DHT22;7976;52.526;13.326;2024-03-17T02:49:30;4.80;99.90
15749;DHT22;7976;52.526;13.326;2024-03-17T02:52:03;4.80;99.90
15749;DHT22;7976;52.526;13.326;2024-03-17T02:54:31;4.70;99.90
15749;DHT22;7976;52.526;13.326;2024-03-17T02:56:59;4.70;99.90
15749;DHT22;7976;52.526;13.326;2024-03-17T02:59:26;4.70;99.90
15749;DHT22;7976;52.526;13.326;2024-03-17T03:01:53;4.70;99.90
15749;DHT22;7976;52.526;13.326;2024-03-17T03:04:20;4.70;99.90
15749;DHT22;7976;52.526;13.326;2024-03-17T03:06:47;4.60;99.90
15749;DHT22;7976;52.526;13.326;2024-03-17T03:09:14;4.60;99.90
15749;DHT22;7976;52.526;13.326;2024-03-17T03:11:51;4.60;99.90
15749;DHT22;7976;52.526;13.326;2024-03-17T03:14:19;4.60;99.90
15749;DHT22;7976;52.526;13.326;2024-03-17T03:16:47;4.50;99.90
15749;DHT22;7976;52.526;13.326;2024-03-17T03:19:15;4.50;99.90
15749;DHT22;7976;52.526;13.326;2024-03-17T03:21:42;4.50;99.90
15749;DHT22;7976;52.526;13.326;2024-03-17T03:24:08;4.40;99.90
15749;DHT22;7976;52.526;13.326;2024-03-17T03:26:35;4.40;99.90
15749;DHT22;7976;52.526;13.326;2024-03-17T03:29:02;4.40;99.90
15749;DHT22;7976;52.526;13.326;2024-03-17T03:31:31;4.40;99.90
15749;DHT22;7976;52.526;13.326;2024-03-17T03:33:58;4.40;99.90
15749;DHT22;7976;52.526;13.326;2024-03-17T03:36:27;4.30;99.90
15749;DHT22;7976;52.526;13.326;2024-03-17T03:38:54;4.40;99.90
15749;DHT22;7976;52.526;13.326;2024-03-17T03:41:23;4.30;99.90
15749;DHT22;7976;52.526;13.326;2024-03-17T03:43:50;4.30;99.90
15749;DHT22;7976;52.526;13.326;2024-03-17T03:46:18;4.30;99.90
15749;DHT22;7976;52.526;13.326;2024-03-17T03:48:47;4.30;99.90
15749;DHT22;7976;52.526;13.326;2024-03-17T03:51:14;4.30;99.90
15749;DHT22;7976;52.526;13.326;2024-03-17T03:53:41;4.30;99.90
15749;DHT22;7976;52.526;13.326;2024-03-17T03:56:08;4.30;99.90
15749;DHT22;7976;52.526;13.326;2024-03-17T03:58:36;4.30;99.90
15749;DHT22;7976;52.526;13.326;2024-03-17T04:01:05;4.30;99.90
15749;DHT22;7976;52.526;13.326;2024-03-17T04:03:32;4.30;99.90
15749;DHT22;7976;52.526;13.326;2024-03-17T04:06:06;4.30;99.90
15749;DHT22;7976;52.526;13.326;2024-03-17T04:08:35;4.20;99.90
15749;DHT22;7976;52.526;13.326;2024-03-17T04:11:03;4.20;99.90
15749;DHT22;7976;52.526;13.326;2024-03-17T04:13:31;4.20;99.90
15749;DHT22;7976;52.526;13.326;2024-03-17T04:15:59;4.20;99.90
15749;DHT22;7976;52.526;13.326;2024-03-17T04:18:27;4.20;99.90
15749;DHT22;7976;52.526;13.326;2024-03-17T04:20:56;4.20;99.90
15749;DHT22;7976;52.526;13.326;2024-03-17T04:23:25;4.20;99.90
15749;DHT22;7976;52.526;13.326;2024-03-17T04:25:53;4.20;99.90
15749;DHT22;7976;52.526;13.326;2024-03-17T04:28:20;4.20;99.90
15749;DHT22;7976;52.526;13.326;2024-03-17T04:30:47;4.20;99.90
15749;DHT22;7976;52.526;13.326;2024-03-17T04:33:14;4.20;99.90
15749;DHT22;7976;52.526;13.326;2024-03-17T04:35:42;4.10;99.90
15749;DHT22;7976;52.526;13.326;2024-03-17T04:38:09;4.10;99.90
15749;DHT22;7976;52.526;13.326;2024-03-17T04:40:41;4.10;99.90
15749;DHT22;7976;52.526;13.326;2024-03-17T04:43:09;4.10;99.90
15749;DHT22;7976;52.526;13.326;2024-03-17T04:45:35;4.10;99.90
15749;DHT22;7976;52.526;13.326;2024-03-17T04:48:03;4.00;99.90
15749;DHT22;7976;52.526;13.326;2024-03-17T04:50:30;4.00;99.90
15749;DHT22;7976;52.526;13.326;2024-03-17T04:52:57;4.00;99.90
15749;DHT22;7976;52.526;13.326;2024-03-17T04:55:25;4.00;99.90
15749;DHT22;7976;52.526;13.326;2024-03-17T04:57:53;4.00;99.90
15749;DHT22;7976;52.526;13.326;2024-03-17T05:00:20;4.00;99.90
15749;DHT22;7976;52.526;13.326;2024-03-17T05:02:47;4.00;99.90
15749;DHT22;7976;52.526;13.326;2024-03-17T05:05:14;4.00;99.90
15749;DHT22;7976;52.526;13.326;2024-03-17T05:07:40;4.00;99.90
15749;DHT22;7976;52.526;13.326;2024-03-17T05:10:07;4.00;99.90
15749;DHT22;7976;52.526;13.326;2024-03-17T05:12:34;4.00;99.90
15749;DHT22;7976;52.526;13.326;2024-03-17T05:15:03;3.90;99.90
15749;DHT22;7976;52.526;13.326;2024-03-17T05:17:31;3.90;99.90
15749;DHT22;7976;52.526;13.326;2024-03-17T05:19:57;3.90;99.90
15749;DHT22;7976;52.526;13.326;2024-03-17T05:22:24;3.90;99.90
15749;DHT22;7976;52.526;13.326;2024-03-17T05:24:51;3.90;99.90
15749;DHT22;7976;52.526;13.326;2024-03-17T05:27:19;3.90;99.90
15749;DHT22;7976;52.526;13.326;2024-03-17T05:29:46;3.90;99.90
15749;DHT22;7976;52.526;13.326;2024-03-17T05:32:14;3.90;99.90
15749;DHT22;7976;52.526;13.326;2024-03-17T05:34:41;3.90;99.90
15749;DHT22;7976;52.526;13.326;2024-03-17T05:37:08;3.90;99.90
15749;DHT22;7976;52.526;13.326;2024-03-17T05:39:35;3.90;99.90
15749;DHT22;7976;52.526;13.326;2024-03-17T05:42:02;3.90;99.90
15749;DHT22;7976;52.526;13.326;2024-03-17T05:44:31;4.00;99.90
15749;DHT22;7976;52.526;13.326;2024-03-17T05:47:16;4.00;99.90
15749;DHT22;7976;52.526;13.326;2024-03-17T05:49:44;4.00;99.90
15749;DHT22;7976;52.526;13.326;2024-03-17T05:52:12;4.00;99.90
15749;DHT22;7976;52.526;13.326;2024-03-17T05:54:39;4.00;99.90
15749;DHT22;7976;52.526;13.326;2024-03-17T05:57:06;4.00;99.90
15749;DHT22;7976;52.526;13.326;2024-03-17T05:59:34;4.00;99.90
15749;DHT22;7976;52.526;13.326;2024-03-17T06:02:02;4.00;99.90
15749;DHT22;7976;52.526;13.326;2024-03-17T06:04:31;4.00;99.90
15749;DHT22;7976;52.526;13.326;2024-03-17T06:06:57;4.00;99.90
15749;DHT22;7976;52.526;13.326;2024-03-17T06:09:25;4.00;99.90
15749;DHT22;7976;52.526;13.326;2024-03-17T06:11:52;4.00;99.90
15749;DHT22;7976;52.526;13.326;2024-03-17T06:14:22;4.00;99.90
15749;DHT22;7976;52.526;13.326;2024-03-17T06:16:51;4.10;99.90
15749;DHT22;7976;52.526;13.326;2024-03-17T06:19:18;4.10;99.90
15749;DHT22;7976;52.526;13.326;2024-03-17T06:21:48;4.10;99.90
15749;DHT22;7976;52.526;13.326;2024-03-17T06:24:17;4.20;99.90
15749;DHT22;7976;52.526;13.326;2024-03-17T06:26:44;4.20;99.90
15749;DHT22;7976;52.526;13.326;2024-03-17T06:29:12;4.20;99.90
15749;DHT22;7976;52.526;13.326;2024-03-17T06:31:40;4.30;99.90
15749;DHT22;7976;52.526;13.326;2024-03-17T06:34:07;4.30;99.90
15749;DHT22;7976;52.526;13.326;2024-03-17T06:36:36;4.40;99.90
15749;DHT22;7976;52.526;13.326;2024-03-17T06:39:05;4.40;99.90
15749;DHT22;7976;52.526;13.326;2024-03-17T06:41:33;4.50;99.90
15749;DHT22;7976;52.526;13.326;2024-03-17T06:44:07;4.50;99.90
15749;DHT22;7976;52.526;13.326;2024-03-17T06:46:36;4.60;99.90
15749;DHT22;7976;52.526;13.326;2024-03-17T06:49:05;4.70;99.90
15749;DHT22;7976;52.526;13.326;2024-03-17T06:51:34;4.80;99.90
15749;DHT22;7976;52.526;13.326;2024-03-17T06:54:02;4.80;99.90
15749;DHT22;7976;52.526;13.326;2024-03-17T06:56:34;4.80;99.90
15749;DHT22;7976;52.526;13.326;2024-03-17T06:59:03;4.90;99.90
15749;DHT22;7976;52.526;13.326;2024-03-17T07:01:30;4.90;99.90
15749;DHT22;7976;52.526;13.326;2024-03-17T07:03:58;5.00;99.90
15749;DHT22;7976;52.526;13.326;2024-03-17T07:06:25;5.00;99.90
15749;DHT22;7976;52.526;13.326;2024-03-17T07:08:53;5.10;99.90
15749;DHT22;7976;52.526;13.326;2024-03-17T07:11:21;5.20;99.90
15749;DHT22;7976;52.526;13.326;2024-03-17T07:13:49;5.30;99.90
15749;DHT22;7976;52.526;13.326;2024-03-17T07:16:17;5.40;99.90
15749;DHT22;7976;52.526;13.326;2024-03-17T07:18:45;5.50;99.90
15749;DHT22;7976;52.526;13.326;2024-03-17T07:21:12;5.60;99.90
15749;DHT22;7976;52.526;13.326;2024-03-17T07:23:39;5.80;99.90
15749;DHT22;7976;52.526;13.326;2024-03-17T07:26:06;5.90;99.90
15749;DHT22;7976;52.526;13.326;2024-03-17T07:28:36;5.90;99.90
15749;DHT22;7976;52.526;13.326;2024-03-17T07:31:08;5.90;99.90
15749;DHT22;7976;52.526;13.326;2024-03-17T07:33:37;6.00;99.90
15749;DHT22;7976;52.526;13.326;2024-03-17T07:36:04;6.00;99.90
15749;DHT22;7976;52.526;13.326;2024-03-17T07:38:34;6.20;99.90
15749;DHT22;7976;52.526;13.326;2024-03-17T07:41:03;6.20;99.90
15749;DHT22;7976;52.526;13.326;2024-03-17T07:43:32;6.20;99.90
15749;DHT22;7976;52.526;13.326;2024-03-17T07:46:03;6.20;99.90
15749;DHT22;7976;52.526;13.326;2024-03-17T07:48:34;6.20;99.90
15749;DHT22;7976;52.526;13.326;2024-03-17T07:51:04;6.30;99.90
15749;DHT22;7976;52.526;13.326;2024-03-17T07:53:35;6.30;99.90
15749;DHT22;7976;52.526;13.326;2024-03-17T07:56:04;6.20;99.90
15749;DHT22;7976;52.526;13.326;2024-03-17T07:58:33;6.20;99.90
15749;DHT22;7976;52.526;13.326;2024-03-17T08:01:05;6.30;99.90
15749;DHT22;7976;52.526;13.326;2024-03-17T08:03:37;6.30;99.90
15749;DHT22;7976;52.526;13.326;2024-03-17T08:06:11;6.30;99.90
15749;DHT22;7976;52.526;13.326;2024-03-17T08:08:45;6.40;99.90
15749;DHT22;7976;52.526;13.326;2024-03-17T08:11:13;6.50;99.90
15749;DHT22;7976;52.526;13.326;2024-03-17T08:13:40;6.60;99.90
15749;DHT22;7976;52.526;13.326;2024-03-17T08:16:09;6.60;99.90
15749;DHT22;7976;52.526;13.326;2024-03-17T08:18:36;6.80;99.90
15749;DHT22;7976;52.526;13.326;2024-03-17T08:21:04;6.90;99.90
15749;DHT22;7976;52.526;13.326;2024-03-17T08:23:36;7.00;99.90
15749;DHT22;7976;52.526;13.326;2024-03-17T08:26:09;7.10;99.90
15749;DHT22;7976;52.526;13.326;2024-03-17T08:28:36;7.10;99.90
15749;DHT22;7976;52.526;13.326;2024-03-17T08:31:06;7.10;99.90
15749;DHT22;7976;52.526;13.326;2024-03-17T08:33:36;7.10;99.90
15749;DHT22;7976;52.526;13.326;2024-03-17T08:36:17;7.10;99.90
15749;DHT22;7976;52.526;13.326;2024-03-17T08:38:52;7.10;99.90
15749;DHT22;7976;52.526;13.326;2024-03-17T08:41:32;7.10;99.90
15749;DHT22;7976;52.526;13.326;2024-03-17T08:44:13;7.00;99.90
15749;DHT22;7976;52.526;13.326;2024-03-17T08:46:47;7.10;99.90
15749;DHT22;7976;52.526;13.326;2024-03-17T08:49:16;7.20;99.90
15749;DHT22;7976;52.526;13.326;2024-03-17T08:51:48;7.30;99.90
15749;DHT22;7976;52.526;13.326;2024-03-17T08:54:17;7.50;99.90
15749;DHT22;7976;52.526;13.326;2024-03-17T08:57:00;7.50;99.90
15749;DHT22;7976;52.526;13.326;2024-03-17T08:59:30;7.70;99.90
15749;DHT22;7976;52.526;13.326;2024-03-17T09:01:59;7.80;99.90
15749;DHT22;7976;52.526;13.326;2024-03-17T09:04:35;7.80;99.90
15749;DHT22;7976;52.526;13.326;2024-03-17T09:07:06;7.80;99.90
15749;DHT22;7976;52.526;13.326;2024-03-17T09:09:37;7.90;99.90
15749;DHT22;7976;52.526;13.326;2024-03-17T09:12:09;7.90;99.90
15749;DHT22;7976;52.526;13.326;2024-03-17T09:14:38;8.00;99.90
15749;DHT22;7976;52.526;13.326;2024-03-17T09:17:10;8.10;99.90
15749;DHT22;7976;52.526;13.326;2024-03-17T09:19:40;8.10;99.90
15749;DHT22;7976;52.526;13.326;2024-03-17T09:22:13;7.90;99.90
15749;DHT22;7976;52.526;13.326;2024-03-17T09:24:44;7.90;99.90
15749;DHT22;7976;52.526;13.326;2024-03-17T09:27:14;8.10;99.90
15749;DHT22;7976;52.526;13.326;2024-03-17T09:29:46;8.20;99.90
15749;DHT22;7976;52.526;13.326;2024-03-17T09:32:19;8.30;99.90
15749;DHT22;7976;52.526;13.326;2024-03-17T09:34:50;8.40;99.90
15749;DHT22;7976;52.526;13.326;2024-03-17T09:37:21;8.40;99.90
15749;DHT22;7976;52.526;13.326;2024-03-17T09:39:54;8.10;99.90
15749;DHT22;7976;52.526;13.326;2024-03-17T09:42:23;7.80;99.90
15749;DHT22;7976;52.526;13.326;2024-03-17T09:44:55;7.60;99.90
15749;DHT22;7976;52.526;13.326;2024-03-17T09:47:25;7.50;99.90
15749;DHT22;7976;52.526;13.326;2024-03-17T09:49:57;7.40;99.90
15749;DHT22;7976;52.526;13.326;2024-03-17T09:52:26;7.60;99.90
15749;DHT22;7976;52.526;13.326;2024-03-17T09:54:59;7.80;99.90
15749;DHT22;7976;52.526;13.326;2024-03-17T09:57:40;8.10;99.90
15749;DHT22;7976;52.526;13.326;2024-03-17T10:00:11;8.30;99.90
15749;DHT22;7976;52.526;13.326;2024-03-17T10:02:45;8.40;99.90
15749;DHT22;7976;52.526;13.326;2024-03-17T10:05:23;8.60;99.90
15749;DHT22;7976;52.526;13.326;2024-03-17T10:07:52;8.70;99.90
15749;DHT22;7976;52.526;13.326;2024-03-17T10:10:23;8.80;99.90
15749;DHT22;7976;52.526;13.326;2024-03-17T10:12:52;8.70;99.90
15749;DHT22;7976;52.526;13.326;2024-03-17T10:15:20;8.70;99.90
15749;DHT22;7976;52.526;13.326;2024-03-17T10:17:50;8.60;99.90
15749;DHT22;7976;52.526;13.326;2024-03-17T10:20:24;8.80;99.90
15749;DHT22;7976;52.526;13.326;2024-03-17T10:23:02;9.00;99.90
15749;DHT22;7976;52.526;13.326;2024-03-17T10:25:33;9.10;99.90
15749;DHT22;7976;52.526;13.326;2024-03-17T10:28:02;9.10;99.90
15749;DHT22;7976;52.526;13.326;2024-03-17T10:30:37;9.10;99.90
15749;DHT22;7976;52.526;13.326;2024-03-17T10:33:07;8.90;99.90
15749;DHT22;7976;52.526;13.326;2024-03-17T10:35:49;8.80;99.90
15749;DHT22;7976;52.526;13.326;2024-03-17T10:38:18;8.80;99.90
15749;DHT22;7976;52.526;13.326;2024-03-17T10:40:46;9.20;99.90
15749;DHT22;7976;52.526;13.326;2024-03-17T10:43:14;9.50;99.90
15749;DHT22;7976;52.526;13.326;2024-03-17T10:45:43;9.70;99.90
15749;DHT22;7976;52.526;13.326;2024-03-17T10:48:14;9.80;99.90
15749;DHT22;7976;52.526;13.326;2024-03-17T10:50:50;9.80;99.90
15749;DHT22;7976;52.526;13.326;2024-03-17T10:53:24;9.60;99.90
15749;DHT22;7976;52.526;13.326;2024-03-17T10:56:03;9.80;99.90
15749;DHT22;7976;52.526;13.326;2024-03-17T10:58:36;9.90;99.90
15749;DHT22;7976;52.526;13.326;2024-03-17T11:01:11;10.30;99.90
15749;DHT22;7976;52.526;13.326;2024-03-17T11:03:41;10.60;99.90
15749;DHT22;7976;52.526;13.326;2024-03-17T11:06:11;10.90;99.90
15749;DHT22;7976;52.526;13.326;2024-03-17T11:08:41;11.10;99.90
15749;DHT22;7976;52.526;13.326;2024-03-17T11:11:09;11.20;99.90
15749;DHT22;7976;52.526;13.326;2024-03-17T11:13:39;11.20;99.90
15749;DHT22;7976;52.526;13.326;2024-03-17T11:16:25;11.30;99.90
15749;DHT22;7976;52.526;13.326;2024-03-17T11:19:06;11.40;99.90
15749;DHT22;7976;52.526;13.326;2024-03-17T11:21:45;11.30;99.90
15749;DHT22;7976;52.526;13.326;2024-03-17T11:24:20;10.90;99.90
15749;DHT22;7976;52.526;13.326;2024-03-17T11:26:48;10.60;99.90
15749;DHT22;7976;52.526;13.326;2024-03-17T11:29:29;10.20;99.90
15749;DHT22;7976;52.526;13.326;2024-03-17T11:31:58;9.80;99.90
15749;DHT22;7976;52.526;13.326;2024-03-17T11:34:32;9.60;99.90
15749;DHT22;7976;52.526;13.326;2024-03-17T11:37:03;9.50;99.90
15749;DHT22;7976;52.526;13.326;2024-03-17T11:39:54;9.30;99.90
15749;DHT22;7976;52.526;13.326;2024-03-17T11:42:25;9.30;99.90
15749;DHT22;7976;52.526;13.326;2024-03-17T11:45:03;9.40;99.90
15749;DHT22;7976;52.526;13.326;2024-03-17T11:47:36;9.50;99.90
15749;DHT22;7976;52.526;13.326;2024-03-17T11:50:07;9.60;99.90
15749;DHT22;7976;52.526;13.326;2024-03-17T11:52:40;9.60;99.90
15749;DHT22;7976;52.526;13.326;2024-03-17T11:55:16;9.80;99.90
15749;DHT22;7976;52.526;13.326;2024-03-17T11:57:44;10.00;99.90
15749;DHT22;7976;52.526;13.326;2024-03-17T12:00:20;10.20;99.90
15749;DHT22;7976;52.526;13.326;2024-03-17T12:02:49;10.20;99.90
15749;DHT22;7976;52.526;13.326;2024-03-17T12:05:17;10.00;99.90
15749;DHT22;7976;52.526;13.326;2024-03-17T12:07:45;9.90;99.90
15749;DHT22;7976;52.526;13.326;2024-03-17T12:10:13;9.70;99.90
15749;DHT22;7976;52.526;13.326;2024-03-17T12:12:40;9.50;99.90
15749;DHT22;7976;52.526;13.326;2024-03-17T12:15:16;9.40;99.90
15749;DHT22;7976;52.526;13.326;2024-03-17T12:17:43;9.60;99.90
15749;DHT22;7976;52.526;13.326;2024-03-17T12:20:17;9.90;99.90
15749;DHT22;7976;52.526;13.326;2024-03-17T12:22:46;10.10;99.90
15749;DHT22;7976;52.526;13.326;2024-03-17T12:25:17;10.20;99.90
15749;DHT22;7976;52.526;13.326;2024-03-17T12:27:45;10.40;99.90
15749;DHT22;7976;52.526;13.326;2024-03-17T12:30:15;10.50;99.90
15749;DHT22;7976;52.526;13.326;2024-03-17T12:32:43;10.70;99.90
15749;DHT22;7976;52.526;13.326;2024-03-17T12:35:15;10.90;99.90
15749;DHT22;7976;52.526;13.326;2024-03-17T12:37:45;11.10;99.90
15749;DHT22;7976;52.526;13.326;2024-03-17T12:40:20;11.40;99.90
15749;DHT22;7976;52.526;13.326;2024-03-17T12:42:48;11.50;99.90
15749;DHT22;7976;52.526;13.326;2024-03-17T12:45:19;11.60;99.90
15749;DHT22;7976;52.526;13.326;2024-03-17T12:47:48;11.60;99.90
15749;DHT22;7976;52.526;13.326;2024-03-17T12:50:16;11.60;99.90
15749;DHT22;7976;52.526;13.326;2024-03-17T12:52:54;11.60;99.90
15749;DHT22;7976;52.526;13.326;2024-03-17T12:55:22;11.50;99.90
15749;DHT22;7976;52.526;13.326;2024-03-17T12:58:07;11.40;99.90
15749;DHT22;7976;52.526;13.326;2024-03-17T13:00:58;11.40;99.90
15749;DHT22;7976;52.526;13.326;2024-03-17T13:03:28;11.30;99.90
15749;DHT22;7976;52.526;13.326;2024-03-17T13:06:01;11.20;99.90
15749;DHT22;7976;52.526;13.326;2024-03-17T13:08:32;11.40;99.90
15749;DHT22;7976;52.526;13.326;2024-03-17T13:11:01;11.50;99.90
15749;DHT22;7976;52.526;13.326;2024-03-17T13:13:29;11.60;99.90
15749;DHT22;7976;52.526;13.326;2024-03-17T13:15:56;11.50;99.90
15749;DHT22;7976;52.526;13.326;2024-03-17T13:18:24;11.30;99.90
15749;DHT22;7976;52.526;13.326;2024-03-17T13:20:51;11.10;99.90
15749;DHT22;7976;52.526;13.326;2024-03-17T13:23:19;10.90;99.90
15749;DHT22;7976;52.526;13.326;2024-03-17T13:25:51;10.60;99.90
15749;DHT22;7976;52.526;13.326;2024-03-17T13:28:19;10.60;99.90
15749;DHT22;7976;52.526;13.326;2024-03-17T13:30:45;10.70;99.90
15749;DHT22;7976;52.526;13.326;2024-03-17T13:33:13;10.90;99.90
15749;DHT22;7976;52.526;13.326;2024-03-17T13:35:41;11.20;99.90
15749;DHT22;7976;52.526;13.326;2024-03-17T13:38:09;11.30;99.90
15749;DHT22;7976;52.526;13.326;2024-03-17T13:40:39;11.30;99.90
15749;DHT22;7976;52.526;13.326;2024-03-17T13:43:09;11.20;99.90
15749;DHT22;7976;52.526;13.326;2024-03-17T13:45:38;11.10;99.90
15749;DHT22;7976;52.526;13.326;2024-03-17T13:48:07;10.80;99.90
15749;DHT22;7976;52.526;13.326;2024-03-17T13:50:36;10.60;99.90
15749;DHT22;7976;52.526;13.326;2024-03-17T13:53:05;10.40;99.90
15749;DHT22;7976;52.526;13.326;2024-03-17T13:55:32;10.20;99.90
15749;DHT22;7976;52.526;13.326;2024-03-17T13:58:00;10.10;99.90
15749;DHT22;7976;52.526;13.326;2024-03-17T14:00:31;10.10;99.90
15749;DHT22;7976;52.526;13.326;2024-03-17T14:03:02;10.20;99.90
15749;DHT22;7976;52.526;13.326;2024-03-17T14:05:29;10.30;99.90
15749;DHT22;7976;52.526;13.326;2024-03-17T14:07:58;10.40;99.90
15749;DHT22;7976;52.526;13.326;2024-03-17T14:10:25;10.40;99.90
15749;DHT22;7976;52.526;13.326;2024-03-17T14:12:52;10.30;99.90
15749;DHT22;7976;52.526;13.326;2024-03-17T14:15:20;10.30;99.90
15749;DHT22;7976;52.526;13.326;2024-03-17T14:17:48;10.30;99.90
15749;DHT22;7976;52.526;13.326;2024-03-17T14:20:16;10.20;99.90
15749;DHT22;7976;52.526;13.326;2024-03-17T14:22:45;10.20;99.90
15749;DHT22;7976;52.526;13.326;2024-03-17T14:25:15;10.10;99.90
15749;DHT22;7976;52.526;13.326;2024-03-17T14:27:44;10.10;99.90
15749;DHT22;7976;52.526;13.326;2024-03-17T14:30:15;10.00;99.90
15749;DHT22;7976;52.526;13.326;2024-03-17T14:32:43;10.00;99.90
15749;DHT22;7976;52.526;13.326;2024-03-17T14:35:13;9.90;99.90
15749;DHT22;7976;52.526;13.326;2024-03-17T14:37:41;9.80;99.90
15749;DHT22;7976;52.526;13.326;2024-03-17T14:40:13;9.70;99.90
15749;DHT22;7976;52.526;13.326;2024-03-17T14:42:45;9.60;99.90
15749;DHT22;7976;52.526;13.326;2024-03-17T14:45:13;9.50;99.90
15749;DHT22;7976;52.526;13.326;2024-03-17T14:47:40;9.50;99.90
15749;DHT22;7976;52.526;13.326;2024-03-17T14:50:07;9.40;99.90
15749;DHT22;7976;52.526;13.326;2024-03-17T14:52:36;9.40;99.90
15749;DHT22;7976;52.526;13.326;2024-03-17T14:55:03;9.40;99.90
15749;DHT22;7976;52.526;13.326;2024-03-17T14:57:30;9.40;99.90
15749;DHT22;7976;52.526;13.326;2024-03-17T14:59:57;9.40;99.90
15749;DHT22;7976;52.526;13.326;2024-03-17T15:02:25;9.40;99.90
15749;DHT22;7976;52.526;13.326;2024-03-17T15:04:52;9.40;99.90
15749;DHT22;7976;52.526;13.326;2024-03-17T15:07:19;9.40;99.90
15749;DHT22;7976;52.526;13.326;2024-03-17T15:09:47;9.30;99.90
15749;DHT22;7976;52.526;13.326;2024-03-17T15:12:14;9.30;99.90
15749;DHT22;7976;52.526;13.326;2024-03-17T15:14:41;9.30;99.90
15749;DHT22;7976;52.526;13.326;2024-03-17T15:17:09;9.20;99.90
15749;DHT22;7976;52.526;13.326;2024-03-17T15:19:36;9.20;99.90
15749;DHT22;7976;52.526;13.326;2024-03-17T15:22:07;9.20;99.90
15749;DHT22;7976;52.526;13.326;2024-03-17T15:24:34;9.20;99.90
15749;DHT22;7976;52.526;13.326;2024-03-17T15:27:03;9.20;99.90
15749;DHT22;7976;52.526;13.326;2024-03-17T15:29:30;9.20;99.90
15749;DHT22;7976;52.526;13.326;2024-03-17T15:31:57;9.20;99.90
15749;DHT22;7976;52.526;13.326;2024-03-17T15:34:24;9.30;99.90
15749;DHT22;7976;52.526;13.326;2024-03-17T15:36:53;9.30;99.90
15749;DHT22;7976;52.526;13.326;2024-03-17T15:39:20;9.30;99.90
15749;DHT22;7976;52.526;13.326;2024-03-17T15:41:47;9.30;99.90
15749;DHT22;7976;52.526;13.326;2024-03-17T15:44:15;9.30;99.90
15749;DHT22;7976;52.526;13.326;2024-03-17T15:46:42;9.40;99.90
15749;DHT22;7976;52.526;13.326;2024-03-17T15:49:09;9.40;99.90
15749;DHT22;7976;52.526;13.326;2024-03-17T15:51:36;9.30;99.90
15749;DHT22;7976;52.526;13.326;2024-03-17T15:54:03;9.30;99.90
15749;DHT22;7976;52.526;13.326;2024-03-17T15:56:30;9.30;99.90